TimeMST,TemperatureF,Dew PointF,Humidity,Sea Level PressureIn,VisibilityMPH,Wind Direction,Wind SpeedMPH,Gust SpeedMPH,PrecipitationIn,Events,Conditions,WindDirDegrees,DateUTC
12:15 AM,15.8,6.8,68,30.26,10.0,South,4.6,-,N/A,,Clear,170,2013-01-24 07:15:00
12:35 AM,17.6,8.6,68,30.25,10.0,SE,13.8,-,N/A,,Clear,130,2013-01-24 07:35:00
12:55 AM,19.4,8.6,63,30.25,10.0,SE,11.5,-,N/A,,Clear,140,2013-01-24 07:55:00
1:15 AM,19.4,8.6,63,30.25,10.0,SSE,10.4,-,N/A,,Clear,150,2013-01-24 08:15:00
1:35 AM,21.2,8.6,58,30.25,10.0,SSE,8.1,-,N/A,,Clear,160,2013-01-24 08:35:00
1:55 AM,19.4,8.6,63,30.25,10.0,SE,5.8,-,N/A,,Clear,130,2013-01-24 08:55:00
2:15 AM,17.6,6.8,63,30.25,10.0,SSE,16.1,-,N/A,,Clear,150,2013-01-24 09:15:00
2:35 AM,19.4,8.6,63,30.25,10.0,South,11.5,-,N/A,,Clear,170,2013-01-24 09:35:00
2:55 AM,17.6,6.8,63,30.26,10.0,SE,6.9,-,N/A,,Clear,130,2013-01-24 09:55:00
3:15 AM,15.8,3.2,58,30.25,10.0,South,5.8,-,N/A,,Clear,170,2013-01-24 10:15:00
3:35 AM,15.8,6.8,68,30.25,10.0,SSE,9.2,-,N/A,,Clear,150,2013-01-24 10:35:00
3:55 AM,17.6,6.8,63,30.24,10.0,South,10.4,-,N/A,,Partly Cloudy,170,2013-01-24 10:55:00
4:15 AM,19.4,8.6,63,30.25,10.0,South,4.6,-,N/A,,Mostly Cloudy,190,2013-01-24 11:15:00
4:35 AM,19.4,10.4,68,30.24,10.0,SSE,6.9,-,N/A,,Scattered Clouds,160,2013-01-24 11:35:00
4:55 AM,17.6,6.8,63,30.25,10.0,SSE,9.2,-,N/A,,Partly Cloudy,150,2013-01-24 11:55:00
5:15 AM,15.8,8.6,73,30.25,10.0,SSE,3.5,-,N/A,,Mostly Cloudy,160,2013-01-24 12:15:00
5:35 AM,17.6,8.6,68,30.24,10.0,SSE,9.2,-,N/A,,Partly Cloudy,150,2013-01-24 12:35:00
5:55 AM,19.4,8.6,63,30.24,10.0,SE,8.1,-,N/A,,Partly Cloudy,130,2013-01-24 12:55:00
6:15 AM,19.4,10.4,68,30.25,10.0,SSE,10.4,-,N/A,,Mostly Cloudy,150,2013-01-24 13:15:00
6:35 AM,17.6,8.6,68,30.24,10.0,SE,13.8,-,N/A,,Partly Cloudy,130,2013-01-24 13:35:00
6:55 AM,17.6,8.6,68,30.24,10.0,SE,12.7,-,N/A,,Clear,130,2013-01-24 13:55:00
7:15 AM,21.2,10.4,63,30.24,10.0,SE,15.0,-,N/A,,Clear,140,2013-01-24 14:15:00
7:35 AM,19.4,10.4,68,30.24,10.0,SSW,8.1,-,N/A,,Mostly Cloudy,210,2013-01-24 14:35:00
8:15 AM,17.6,10.4,73,30.26,10.0,South,8.1,-,N/A,,Clear,170,2013-01-24 15:15:00
8:35 AM,17.6,10.4,73,30.26,10.0,ESE,6.9,-,N/A,,Clear,110,2013-01-24 15:35:00
8:55 AM,19.4,8.6,63,30.25,10.0,SE,8.1,-,N/A,,Clear,130,2013-01-24 15:55:00
9:15 AM,21.2,10.4,63,30.25,10.0,ESE,10.4,-,N/A,,Clear,120,2013-01-24 16:15:00
9:55 AM,24.8,10.4,54,30.25,10.0,SSE,12.7,-,N/A,,Clear,150,2013-01-24 16:55:00
10:15 AM,26.6,14.0,59,30.26,10.0,SSW,4.6,-,N/A,,Clear,200,2013-01-24 17:15:00
10:55 AM,21.2,14.0,74,30.27,10.0,NW,3.5,-,N/A,,Clear,310,2013-01-24 17:55:00
11:15 AM,24.8,14.0,64,30.27,10.0,Calm,Calm,-,N/A,,Clear,0,2013-01-24 18:15:00
11:35 AM,26.6,15.8,64,30.25,10.0,Calm,Calm,-,N/A,,Clear,0,2013-01-24 18:35:00
11:55 AM,26.6,17.6,69,30.24,10.0,ESE,6.9,-,N/A,,Clear,120,2013-01-24 18:55:00
12:15 PM,28.4,17.6,64,30.24,10.0,South,4.6,-,N/A,,Partly Cloudy,190,2013-01-24 19:15:00
12:35 PM,32.0,19.4,60,30.24,10.0,North,8.1,-,N/A,,Scattered Clouds,360,2013-01-24 19:35:00
12:55 PM,33.8,19.4,56,30.23,10.0,Calm,Calm,-,N/A,,Mostly Cloudy,0,2013-01-24 19:55:00
1:15 PM,33.8,19.4,56,30.22,10.0,East,5.8,-,N/A,,Mostly Cloudy,80,2013-01-24 20:15:00
1:35 PM,33.8,21.2,60,30.22,10.0,Calm,Calm,-,N/A,,Partly Cloudy,0,2013-01-24 20:35:00
2:15 PM,33.8,21.2,60,30.22,10.0,SW,4.6,-,N/A,,Scattered Clouds,230,2013-01-24 21:15:00
2:35 PM,35.6,23.0,60,30.22,10.0,South,4.6,-,N/A,,Mostly Cloudy,190,2013-01-24 21:35:00
2:55 PM,35.6,24.8,65,30.23,10.0,Calm,Calm,-,N/A,,Overcast,0,2013-01-24 21:55:00
3:15 PM,35.6,24.8,65,30.23,10.0,Calm,Calm,-,N/A,,Overcast,0,2013-01-24 22:15:00
3:35 PM,37.4,26.6,65,30.22,10.0,Calm,Calm,-,N/A,,Overcast,0,2013-01-24 22:35:00
4:15 PM,35.6,26.6,70,30.23,10.0,SE,9.2,-,N/A,,Overcast,140,2013-01-24 23:15:00
4:35 PM,33.8,28.4,81,30.23,10.0,SE,12.7,-,N/A,,Overcast,140,2013-01-24 23:35:00
4:55 PM,33.8,28.4,81,30.24,5.0,SSE,12.7,-,N/A,,Overcast,150,2013-01-24 23:55:00
5:15 PM,32.0,28.4,87,30.25,4.0,SSE,9.2,-,N/A,,Overcast,160,2013-01-25 00:15:00
5:35 PM,32.0,28.4,87,30.26,2.0,SSE,9.2,-,N/A,,Overcast,160,2013-01-25 00:35:00
5:55 PM,32.0,30.2,93,30.27,4.0,South,5.8,-,N/A,,Overcast,170,2013-01-25 00:55:00
6:15 PM,32.0,30.2,93,30.27,4.0,SSE,6.9,-,N/A,,Overcast,160,2013-01-25 01:15:00
6:35 PM,32.0,30.2,93,30.26,10.0,South,9.2,-,N/A,,Overcast,170,2013-01-25 01:35:00
6:55 PM,32.0,30.2,93,30.27,10.0,South,6.9,-,N/A,,Overcast,170,2013-01-25 01:55:00
7:15 PM,32.0,30.2,93,30.28,10.0,South,8.1,-,N/A,,Overcast,170,2013-01-25 02:15:00
7:35 PM,32.0,30.2,93,30.27,10.0,South,8.1,-,N/A,,Overcast,170,2013-01-25 02:35:00
7:55 PM,32.0,30.2,93,30.28,10.0,SSE,5.8,-,N/A,,Overcast,160,2013-01-25 02:55:00
8:15 PM,32.0,30.2,93,30.28,10.0,East,4.6,-,N/A,,Overcast,100,2013-01-25 03:15:00
8:35 PM,32.0,28.4,87,30.27,10.0,SSE,5.8,-,N/A,,Overcast,160,2013-01-25 03:35:00
9:15 PM,32.0,30.2,93,30.30,10.0,ESE,4.6,-,N/A,,Overcast,120,2013-01-25 04:15:00
9:35 PM,33.8,30.2,87,30.29,10.0,SE,5.8,-,N/A,,Overcast,130,2013-01-25 04:35:00
9:55 PM,33.8,30.2,87,30.29,10.0,South,8.1,-,N/A,,Overcast,170,2013-01-25 04:55:00
10:15 PM,33.8,28.4,81,30.28,10.0,South,9.2,-,N/A,,Overcast,180,2013-01-25 05:15:00
10:35 PM,32.0,28.4,87,30.28,10.0,ESE,10.4,-,N/A,,Overcast,110,2013-01-25 05:35:00
10:55 PM,32.0,28.4,87,30.28,10.0,South,6.9,-,N/A,,Overcast,180,2013-01-25 05:55:00
11:15 PM,32.0,28.4,87,30.29,10.0,SSE,3.5,-,N/A,,Overcast,150,2013-01-25 06:15:00
11:35 PM,33.8,28.4,81,30.30,10.0,SE,3.5,-,N/A,,Overcast,140,2013-01-25 06:35:00
11:55 PM,32.0,28.4,87,30.29,10.0,Calm,Calm,-,N/A,,Overcast,0,2013-01-25 06:55:00